createdAt,value
2024-04-13T00:01:13.582Z,77.34
2024-04-13T00:03:42.685Z,77.54
2024-04-13T00:06:15.139Z,77.67
2024-04-13T00:08:42.270Z,77.61
2024-04-13T00:11:12.275Z,77.68
2024-04-13T00:13:39.643Z,77.90
2024-04-13T00:16:09.422Z,77.82
2024-04-13T00:18:36.443Z,78.40
2024-04-13T00:21:06.397Z,77.98
2024-04-13T00:23:36.215Z,78.03
2024-04-13T00:26:06.275Z,78.17
2024-04-13T00:28:34.679Z,78.30
2024-04-13T00:31:06.337Z,78.43
2024-04-13T00:33:35.028Z,78.38
2024-04-13T00:36:06.735Z,78.43
2024-04-13T00:38:36.379Z,78.49
2024-04-13T00:41:06.682Z,78.67
2024-04-13T00:43:33.697Z,78.55
2024-04-13T00:46:08.819Z,78.71
2024-04-13T00:48:38.238Z,78.51
2024-04-13T00:51:13.548Z,78.82
2024-04-13T00:53:43.489Z,79.07
2024-04-13T00:56:15.069Z,78.86
2024-04-13T00:58:44.559Z,79.23
2024-04-13T01:01:14.883Z,79.06
2024-04-13T01:03:45.528Z,79.32
2024-04-13T01:06:16.178Z,79.13
2024-04-13T01:08:45.772Z,79.22
2024-04-13T01:11:16.357Z,79.35
2024-04-13T01:13:43.558Z,79.40
2024-04-13T01:16:13.061Z,79.60
2024-04-13T01:18:41.386Z,79.44
2024-04-13T01:21:11.431Z,79.66
2024-04-13T01:23:47.876Z,79.65
2024-04-13T01:26:21.592Z,79.78
2024-04-13T01:28:48.574Z,79.92
2024-04-13T01:31:18.453Z,79.77
2024-04-13T01:33:45.520Z,79.89
2024-04-13T01:36:15.203Z,79.82
2024-04-13T01:38:42.277Z,80.00
2024-04-13T01:41:11.918Z,80.25
2024-04-13T01:43:41.533Z,80.03
2024-04-13T01:46:11.171Z,80.60
2024-04-13T01:48:39.227Z,80.46
2024-04-13T01:51:09.055Z,80.46
2024-04-13T01:53:36.192Z,80.34
2024-04-13T01:56:07.256Z,80.60
2024-04-13T01:58:34.206Z,80.48
2024-04-13T02:01:09.678Z,80.50
2024-04-13T02:03:37.599Z,80.61
2024-04-13T02:06:08.050Z,80.82
2024-04-13T02:08:35.490Z,81.08
2024-04-13T02:11:05.996Z,80.83
2024-04-13T02:13:33.436Z,80.94
2024-04-13T02:16:03.335Z,80.76
2024-04-13T02:18:33.169Z,81.08
2024-04-13T02:21:02.964Z,81.18
2024-04-13T02:23:30.037Z,81.22
2024-04-13T02:26:01.131Z,81.24
2024-04-13T02:28:28.110Z,81.40
2024-04-13T02:30:57.843Z,81.15
2024-04-13T02:33:25.234Z,81.24
2024-04-13T02:36:04.682Z,81.42
2024-04-13T02:38:33.866Z,81.72
2024-04-13T02:41:05.038Z,81.47
2024-04-13T02:43:32.639Z,81.42
2024-04-13T02:46:09.131Z,81.83
2024-04-13T02:48:36.381Z,81.79
2024-04-13T02:51:10.104Z,81.86
2024-04-13T02:53:38.334Z,81.74
2024-04-13T02:56:08.898Z,81.81
2024-04-13T02:58:36.302Z,82.09
2024-04-13T03:01:07.303Z,81.89
2024-04-13T03:03:34.685Z,82.22
2024-04-13T03:06:05.502Z,82.00
2024-04-13T03:08:35.261Z,82.25
2024-04-13T03:11:06.101Z,82.15
2024-04-13T03:13:33.198Z,82.17
2024-04-13T03:16:04.694Z,82.26
2024-04-13T03:18:31.846Z,82.42
2024-04-13T03:21:01.769Z,82.41
2024-04-13T03:23:30.810Z,82.22
2024-04-13T03:26:03.434Z,82.48
2024-04-13T03:28:31.276Z,82.62
2024-04-13T03:31:01.187Z,82.59
2024-04-13T03:33:28.531Z,82.52
2024-04-13T03:36:03.549Z,82.60
2024-04-13T03:38:33.240Z,82.99
2024-04-13T03:41:07.785Z,82.91
2024-04-13T03:43:38.313Z,82.74
2024-04-13T03:46:06.280Z,82.88
2024-04-13T03:48:39.619Z,82.75
2024-04-13T03:51:07.913Z,83.16
2024-04-13T03:53:37.711Z,83.24
2024-04-13T03:56:07.768Z,83.18
2024-04-13T03:58:38.153Z,83.16
2024-04-13T04:01:06.250Z,83.04
2024-04-13T04:03:36.660Z,83.32
2024-04-13T04:06:06.041Z,83.22
2024-04-13T04:08:36.320Z,83.24
2024-04-13T04:11:03.445Z,83.48
2024-04-13T04:13:35.668Z,83.50
2024-04-13T04:16:02.651Z,83.51
2024-04-13T04:18:32.446Z,83.64
2024-04-13T04:20:59.487Z,83.59
2024-04-13T04:23:29.143Z,83.67
2024-04-13T04:25:56.232Z,84.04
2024-04-13T04:28:25.845Z,83.83
2024-04-13T04:30:55.548Z,83.89
2024-04-13T04:33:25.788Z,83.81
2024-04-13T04:35:53.697Z,84.26
2024-04-13T04:38:24.377Z,84.07
2024-04-13T04:40:51.382Z,83.95
2024-04-13T04:43:20.985Z,84.28
2024-04-13T04:45:47.986Z,84.15
2024-04-13T04:48:20.353Z,84.35
2024-04-13T04:50:57.350Z,84.19
2024-04-13T04:53:28.194Z,83.71
2024-04-13T04:55:55.874Z,84.44
2024-04-13T04:58:25.536Z,84.38
2024-04-13T05:00:52.672Z,84.52
2024-04-13T05:03:26.347Z,84.41
2024-04-13T05:05:53.490Z,84.37
2024-04-13T05:08:23.100Z,84.54
2024-04-13T05:10:50.089Z,84.85
2024-04-13T05:13:20.386Z,84.71
2024-04-13T05:15:47.386Z,84.64
2024-04-13T05:18:17.212Z,84.75
2024-04-13T05:20:46.935Z,85.01
2024-04-13T05:23:17.548Z,84.82
2024-04-13T05:25:44.581Z,84.95
2024-04-13T05:28:14.163Z,84.88
2024-04-13T05:30:46.741Z,85.03
2024-04-13T05:33:16.506Z,84.78
2024-04-13T05:35:47.552Z,84.88
2024-04-13T05:38:17.247Z,85.14
2024-04-13T05:40:44.347Z,85.19
2024-04-13T05:43:14.010Z,85.10
2024-04-13T05:45:41.147Z,84.97
2024-04-13T05:48:11.418Z,85.46
2024-04-13T05:50:39.229Z,85.15
2024-04-13T05:53:11.508Z,85.51
2024-04-13T05:55:40.799Z,85.28
2024-04-13T05:58:13.697Z,85.47
2024-04-13T06:00:41.108Z,85.15
2024-04-13T06:03:10.790Z,85.64
2024-04-13T06:05:40.993Z,85.40
2024-04-13T06:08:14.398Z,85.52
2024-04-13T06:10:41.753Z,85.39
2024-04-13T06:13:11.299Z,85.38
2024-04-13T06:15:39.342Z,85.55
2024-04-13T06:18:09.190Z,85.62
2024-04-13T06:20:36.210Z,85.35
2024-04-13T06:23:05.838Z,85.78
2024-04-13T06:25:35.528Z,85.71
2024-04-13T06:28:05.165Z,85.76
2024-04-13T06:30:32.222Z,85.59
2024-04-13T06:33:01.932Z,85.67
2024-04-13T06:35:28.939Z,85.72
2024-04-13T06:37:58.456Z,85.83
2024-04-13T06:40:25.563Z,86.04
2024-04-13T06:42:57.848Z,85.84
2024-04-13T06:45:25.264Z,86.20
2024-04-13T06:47:54.871Z,85.74
2024-04-13T06:50:21.916Z,85.69
2024-04-13T06:52:51.569Z,85.66
2024-04-13T06:55:18.694Z,85.74
2024-04-13T06:57:48.337Z,85.86
2024-04-13T07:00:18.510Z,86.07
2024-04-13T07:02:48.743Z,86.23
2024-04-13T07:05:15.909Z,85.68
2024-04-13T07:07:45.456Z,86.33
2024-04-13T07:10:12.458Z,86.20
2024-04-13T07:12:42.096Z,86.30
2024-04-13T07:15:09.906Z,85.69
2024-04-13T07:17:42.255Z,86.39
2024-04-13T07:20:09.817Z,86.05
2024-04-13T07:22:39.535Z,85.75
2024-04-13T07:25:06.804Z,85.63
2024-04-13T07:27:36.668Z,86.09
2024-04-13T07:30:04.359Z,85.72
2024-04-13T07:32:34.038Z,85.58
2024-04-13T07:35:05.031Z,86.05
2024-04-13T07:37:35.089Z,86.07
2024-04-13T07:40:02.057Z,85.75
2024-04-13T07:42:31.734Z,85.68
2024-04-13T07:44:58.678Z,86.00
2024-04-13T07:47:28.397Z,85.60
2024-04-13T07:49:55.430Z,85.93
2024-04-13T07:52:27.636Z,86.07
2024-04-13T07:54:54.592Z,85.62
2024-04-13T07:57:24.361Z,85.75
2024-04-13T07:59:51.365Z,85.87
2024-04-13T08:02:21.052Z,85.59
2024-04-13T08:04:48.260Z,85.68
2024-04-13T08:07:17.874Z,85.46
2024-04-13T08:09:47.607Z,85.57
2024-04-13T08:12:17.213Z,85.82
2024-04-13T08:14:44.348Z,85.52
2024-04-13T08:17:14.647Z,85.64
2024-04-13T08:19:41.841Z,85.74
2024-04-13T08:22:11.444Z,85.45
2024-04-13T08:24:38.474Z,85.57
2024-04-13T08:27:10.937Z,85.45
2024-04-13T08:29:38.493Z,85.04
2024-04-13T08:32:08.657Z,85.53
2024-04-13T08:34:35.630Z,84.97
2024-04-13T08:37:05.296Z,85.27
2024-04-13T08:39:32.360Z,85.00
2024-04-13T08:42:07.833Z,84.89
2024-04-13T08:44:38.294Z,84.92
2024-04-13T08:47:09.667Z,84.94
2024-04-13T08:49:40.903Z,84.95
2024-04-13T08:52:11.393Z,85.03
2024-04-13T08:54:38.599Z,84.70
2024-04-13T08:57:09.977Z,84.82
2024-04-13T08:59:41.298Z,84.41
2024-04-13T09:02:17.276Z,84.54
2024-04-13T09:04:44.448Z,84.17
2024-04-13T09:07:14.653Z,84.69
2024-04-13T09:09:41.919Z,84.22
2024-04-13T09:12:11.756Z,84.18
2024-04-13T09:14:42.064Z,84.61
2024-04-13T09:17:12.038Z,84.05
2024-04-13T09:19:39.068Z,83.75
2024-04-13T09:22:10.587Z,83.88
2024-04-13T09:24:41.219Z,84.11
2024-04-13T09:27:18.106Z,83.65
2024-04-13T09:29:48.418Z,83.97
2024-04-13T09:32:26.671Z,83.77
2024-04-13T09:34:55.578Z,84.02
2024-04-13T09:37:26.026Z,83.41
2024-04-13T09:40:01.585Z,83.65
2024-04-13T09:42:31.944Z,83.18
2024-04-13T09:45:06.904Z,83.18
2024-04-13T09:47:37.112Z,82.86
2024-04-13T09:50:05.255Z,83.06
2024-04-13T09:52:35.943Z,82.92
2024-04-13T09:57:33.393Z,82.50
2024-04-13T10:00:02.490Z,82.99
2024-04-13T10:02:37.968Z,82.59
2024-04-13T10:05:05.796Z,82.87
2024-04-13T10:07:37.489Z,82.14
2024-04-13T10:10:07.402Z,82.30
2024-04-13T10:12:41.171Z,82.65
2024-04-13T10:15:10.299Z,82.74
2024-04-13T10:17:44.831Z,82.23
2024-04-13T10:20:11.960Z,82.09
2024-04-13T10:22:41.620Z,81.79
2024-04-13T10:25:09.375Z,81.83
2024-04-13T10:27:41.570Z,81.80
2024-04-13T10:30:09.266Z,81.25
2024-04-13T10:32:48.817Z,81.52
2024-04-13T10:35:20.650Z,81.62
2024-04-13T10:37:50.286Z,81.43
2024-04-13T10:40:25.368Z,81.40
2024-04-13T10:42:54.991Z,80.88
2024-04-13T10:45:22.141Z,80.74
2024-04-13T10:47:54.663Z,81.17
2024-04-13T10:50:21.496Z,80.51
2024-04-13T10:52:51.109Z,80.32
2024-04-13T10:55:20.019Z,80.36
2024-04-13T10:57:50.664Z,80.40
2024-04-13T11:00:19.263Z,80.71
2024-04-13T11:02:51.382Z,80.51
2024-04-13T11:05:22.178Z,79.93
2024-04-13T11:07:52.811Z,80.09
2024-04-13T11:10:20.319Z,80.31
2024-04-13T11:12:52.217Z,79.53
2024-04-13T11:15:20.607Z,79.52
2024-04-13T11:17:51.118Z,79.58
2024-04-13T11:20:18.367Z,79.27
2024-04-13T11:22:50.707Z,79.10
2024-04-13T11:25:19.617Z,79.42
2024-04-13T11:27:49.893Z,79.09
2024-04-13T11:30:18.810Z,79.03
2024-04-13T11:32:48.925Z,79.07
2024-04-13T11:35:17.228Z,79.00
2024-04-13T11:38:01.615Z,78.57
2024-04-13T11:40:30.965Z,78.83
2024-04-13T11:43:01.195Z,78.63
2024-04-13T11:45:28.565Z,78.59
2024-04-13T11:47:58.651Z,78.21
2024-04-13T11:50:25.866Z,78.33
2024-04-13T11:52:56.406Z,78.10
2024-04-13T11:55:29.727Z,78.16
2024-04-13T11:57:59.417Z,77.90
2024-04-13T12:00:26.523Z,77.66
2024-04-13T12:02:57.668Z,77.67
2024-04-13T12:05:24.765Z,77.66
2024-04-13T12:07:54.578Z,77.35
2024-04-13T12:10:21.885Z,77.45
2024-04-13T12:12:54.257Z,77.41
2024-04-13T12:15:21.352Z,77.14
2024-04-13T12:17:51.036Z,77.21
2024-04-13T12:20:18.108Z,76.76
2024-04-13T12:22:47.751Z,76.84
2024-04-13T12:25:14.852Z,76.53
2024-04-13T12:27:44.553Z,76.60
2024-04-13T12:30:14.949Z,76.60
2024-04-13T12:32:44.808Z,76.42
2024-04-13T12:35:12.534Z,76.36
2024-04-13T12:37:42.216Z,76.05
2024-04-13T12:40:10.222Z,75.90
2024-04-13T12:42:39.940Z,75.97
2024-04-13T12:45:07.179Z,75.86
2024-04-13T12:47:40.066Z,75.71
2024-04-13T12:50:07.822Z,75.54
2024-04-13T12:52:37.834Z,75.37
2024-04-13T12:55:05.382Z,75.30
2024-04-13T12:57:35.122Z,75.29
2024-04-13T13:00:04.058Z,75.03
2024-04-13T13:02:33.941Z,74.88
2024-04-13T13:05:03.895Z,74.79
2024-04-13T13:07:33.767Z,74.72
2024-04-13T13:10:00.990Z,74.65
2024-04-13T13:12:30.779Z,74.38
2024-04-13T13:14:57.741Z,74.35
2024-04-13T13:17:28.047Z,74.41
2024-04-13T13:19:55.315Z,74.26
2024-04-13T13:22:27.530Z,73.96
2024-04-13T13:24:54.572Z,73.79
2024-04-13T13:27:24.291Z,74.11
2024-04-13T13:29:51.533Z,73.66
2024-04-13T13:32:21.177Z,73.65
2024-04-13T13:34:48.215Z,73.46
2024-04-13T13:37:17.875Z,73.52
2024-04-13T13:39:47.541Z,73.24
2024-04-13T13:42:17.182Z,73.50
2024-04-13T13:44:44.217Z,73.20
2024-04-13T13:47:13.850Z,72.95
2024-04-13T13:49:40.819Z,72.98
2024-04-13T13:52:10.448Z,72.76
2024-04-13T13:54:37.468Z,72.87
2024-04-13T13:57:10.557Z,72.85
2024-04-13T13:59:37.634Z,72.55
2024-04-13T14:02:07.673Z,72.38
2024-04-13T14:04:34.739Z,72.32
2024-04-13T14:07:04.460Z,72.24
2024-04-13T14:09:33.270Z,72.06
2024-04-13T14:12:02.870Z,71.99
2024-04-13T14:14:32.585Z,72.11
2024-04-13T14:17:02.290Z,71.81
2024-04-13T14:19:29.561Z,71.72
2024-04-13T14:21:59.212Z,71.54
2024-04-13T14:24:27.576Z,71.65
2024-04-13T14:26:57.240Z,71.39
2024-04-13T14:29:24.345Z,71.38
2024-04-13T14:31:56.580Z,71.17
2024-04-13T14:34:23.629Z,71.21
2024-04-13T14:36:53.357Z,71.15
2024-04-13T14:39:20.473Z,70.69
2024-04-13T14:41:50.183Z,70.89
2024-04-13T14:44:17.290Z,70.67
2024-04-13T14:46:48.433Z,70.88
2024-04-13T14:49:18.140Z,70.49
2024-04-13T14:51:47.878Z,70.20
2024-04-13T14:54:14.957Z,70.36
2024-04-13T14:56:45.874Z,70.30
2024-04-13T14:59:12.883Z,70.31
2024-04-13T15:01:43.087Z,70.23
2024-04-13T15:04:10.550Z,69.94
2024-04-13T15:06:42.957Z,69.72
2024-04-13T15:09:09.960Z,69.66
2024-04-13T15:11:39.575Z,69.67
2024-04-13T15:14:06.565Z,69.63
2024-04-13T15:16:36.343Z,69.55
2024-04-13T15:19:03.678Z,69.50
2024-04-13T15:21:33.406Z,69.42
2024-04-13T15:24:03.149Z,69.23
2024-04-13T15:26:32.852Z,69.31
2024-04-13T15:29:00.199Z,69.39
2024-04-13T15:31:30.322Z,68.91
2024-04-13T15:33:57.396Z,68.80
2024-04-13T15:36:27.245Z,68.79
2024-04-13T15:38:54.311Z,68.64
2024-04-13T15:41:26.651Z,68.56
2024-04-13T15:43:53.743Z,68.47
2024-04-13T15:46:23.403Z,68.43
2024-04-13T15:48:50.502Z,68.39
2024-04-13T15:51:20.225Z,68.33
2024-04-13T15:53:47.204Z,68.09
2024-04-13T15:56:16.803Z,67.94
2024-04-13T15:58:46.440Z,68.14
2024-04-13T16:01:16.175Z,67.92
2024-04-13T16:03:43.334Z,67.84
2024-04-13T16:06:13.070Z,67.71
2024-04-13T16:08:40.079Z,67.70
2024-04-13T16:11:09.888Z,67.61
2024-04-13T16:13:38.101Z,67.47
2024-04-13T16:16:18.411Z,67.53
2024-04-13T16:18:50.910Z,67.52
2024-04-13T16:21:20.651Z,67.35
2024-04-13T16:23:47.769Z,67.22
2024-04-13T16:26:17.466Z,67.25
2024-04-13T16:28:44.440Z,67.07
2024-04-13T16:31:16.734Z,67.03
2024-04-13T16:33:43.767Z,67.04
2024-04-13T16:36:13.441Z,66.66
2024-04-13T16:38:40.569Z,67.01
2024-04-13T16:41:10.439Z,66.81
2024-04-13T16:43:37.446Z,66.96
2024-04-13T16:46:07.360Z,66.77
2024-04-13T16:48:37.296Z,66.63
2024-04-13T16:51:07.150Z,66.72
2024-04-13T16:53:36.021Z,66.45
2024-04-13T16:56:07.265Z,66.47
2024-04-13T16:58:34.434Z,66.17
2024-04-13T17:01:04.255Z,66.19
2024-04-13T17:03:31.406Z,66.13
2024-04-13T17:06:03.768Z,66.16
2024-04-13T17:08:30.758Z,65.87
2024-04-13T17:11:00.422Z,65.98
2024-04-13T17:13:27.500Z,66.15
2024-04-13T17:15:57.207Z,66.16
2024-04-13T17:18:24.445Z,65.73
2024-04-13T17:20:54.472Z,65.68
2024-04-13T17:23:24.132Z,65.89
2024-04-13T17:25:54.606Z,65.28
2024-04-13T17:28:21.707Z,65.66
2024-04-13T17:30:51.433Z,65.62
2024-04-13T17:33:18.544Z,65.76
2024-04-13T17:35:49.800Z,65.55
2024-04-13T17:38:17.083Z,65.60
2024-04-13T17:40:49.294Z,65.23
2024-04-13T17:43:16.266Z,65.45
2024-04-13T17:45:45.868Z,65.45
2024-04-13T17:48:12.997Z,65.23
2024-04-13T17:50:42.606Z,65.21
2024-04-13T17:53:10.675Z,65.22
2024-04-13T17:55:40.306Z,64.94
2024-04-13T17:58:10.107Z,65.38
2024-04-13T18:00:40.240Z,65.08
2024-04-13T18:03:07.320Z,65.24
2024-04-13T18:05:37.053Z,65.43
2024-04-13T18:08:05.618Z,65.53
2024-04-13T18:10:35.308Z,64.93
2024-04-13T18:13:02.404Z,64.51
2024-04-13T18:15:34.745Z,64.85
2024-04-13T18:18:01.704Z,64.78
2024-04-13T18:20:31.473Z,64.47
2024-04-13T18:22:58.442Z,65.42
2024-04-13T18:25:28.209Z,64.57
2024-04-13T18:27:55.483Z,64.48
2024-04-13T18:30:25.142Z,64.76
2024-04-13T18:32:54.907Z,64.55
2024-04-13T18:35:24.652Z,64.81
2024-04-13T18:37:52.947Z,64.45
2024-04-13T18:40:22.684Z,64.77
2024-04-13T18:42:49.768Z,64.25
2024-04-13T18:45:21.037Z,64.63
2024-04-13T18:47:48.554Z,64.55
2024-04-13T18:50:20.964Z,64.55
2024-04-13T18:52:47.775Z,64.39
2024-04-13T18:55:20.707Z,64.78
2024-04-13T18:57:47.746Z,64.52
2024-04-13T19:00:18.735Z,64.65
2024-04-13T19:02:46.739Z,64.50
2024-04-13T19:05:16.457Z,64.74
2024-04-13T19:07:46.135Z,64.51
2024-04-13T19:10:15.914Z,64.88
2024-04-13T19:12:43.026Z,64.41
2024-04-13T19:15:13.520Z,64.47
2024-04-13T19:17:41.059Z,64.75
2024-04-13T19:20:11.223Z,64.53
2024-04-13T19:22:38.168Z,64.55
2024-04-13T19:25:10.648Z,64.59
2024-04-13T19:27:37.690Z,64.88
2024-04-13T19:30:11.687Z,64.63
2024-04-13T19:32:38.830Z,64.73
2024-04-13T19:35:08.636Z,64.73
2024-04-13T19:37:35.786Z,64.66
2024-04-13T19:40:07.792Z,64.81
2024-04-13T19:42:37.602Z,64.82
2024-04-13T19:45:08.320Z,64.58
2024-04-13T19:47:35.473Z,64.66
2024-04-13T19:50:05.948Z,64.99
2024-04-13T19:52:33.110Z,65.11
2024-04-13T19:55:03.180Z,65.14
2024-04-13T19:57:30.456Z,64.78
2024-04-13T20:00:06.049Z,65.11
2024-04-13T20:02:34.029Z,65.11
2024-04-13T20:05:05.616Z,65.01
2024-04-13T20:07:32.809Z,65.06
2024-04-13T20:10:02.601Z,65.13
2024-04-13T20:12:29.716Z,64.99
2024-04-13T20:15:18.126Z,64.95
2024-04-13T20:18:02.905Z,65.34
2024-04-13T20:20:32.574Z,65.32
2024-04-13T20:23:02.293Z,65.29
2024-04-13T20:25:36.638Z,65.79
2024-04-13T20:28:06.461Z,65.71
2024-04-13T20:30:38.850Z,65.47
2024-04-13T20:33:06.098Z,65.73
2024-04-13T20:35:35.749Z,65.34
2024-04-13T20:38:03.109Z,65.45
2024-04-13T20:40:32.810Z,65.58
2024-04-13T20:43:01.495Z,66.08
2024-04-13T20:45:31.194Z,66.03
2024-04-13T20:48:00.925Z,66.14
2024-04-13T20:50:30.635Z,66.20
2024-04-13T20:53:01.586Z,65.93
2024-04-13T20:55:32.023Z,65.98
2024-04-13T20:57:59.178Z,66.08
2024-04-13T21:00:31.461Z,66.06
2024-04-13T21:03:01.265Z,66.20
2024-04-13T21:05:34.452Z,66.05
2024-04-13T21:08:01.965Z,66.16
2024-04-13T21:10:32.368Z,66.12
2024-04-13T21:13:01.466Z,66.61
2024-04-13T21:15:36.126Z,66.70
2024-04-13T21:18:07.946Z,66.95
2024-04-13T21:20:38.322Z,66.76
2024-04-13T21:23:05.549Z,67.04
2024-04-13T21:25:39.491Z,66.54
2024-04-13T21:28:08.127Z,67.15
2024-04-13T21:30:39.177Z,66.63
2024-04-13T21:33:09.084Z,67.09
2024-04-13T21:35:38.956Z,66.77
2024-04-13T21:38:05.953Z,67.46
2024-04-13T21:40:35.588Z,66.99
2024-04-13T21:43:03.452Z,67.03
2024-04-13T21:45:33.191Z,67.41
2024-04-13T21:48:00.427Z,67.24
2024-04-13T21:50:32.780Z,67.76
2024-04-13T21:53:00.678Z,67.93
2024-04-13T21:55:30.290Z,67.29
2024-04-13T21:57:58.211Z,67.68
2024-04-13T22:00:28.252Z,67.83
2024-04-13T22:06:38.755Z,67.78
2024-04-13T22:09:08.736Z,67.75
2024-04-13T22:11:38.784Z,67.87
2024-04-13T22:14:05.789Z,68.39
2024-04-13T22:16:35.430Z,68.00
2024-04-13T22:19:03.269Z,68.21
2024-04-13T22:21:33.095Z,68.47
2024-04-13T22:24:03.159Z,68.58
2024-04-13T22:26:33.539Z,68.27
2024-04-13T22:29:00.568Z,68.87
2024-04-13T22:31:30.120Z,68.97
2024-04-13T22:33:57.227Z,68.63
2024-04-13T22:36:32.339Z,68.79
2024-04-13T22:38:59.494Z,68.82
2024-04-13T22:41:31.837Z,69.14
2024-04-13T22:43:58.904Z,69.46
2024-04-13T22:46:28.494Z,69.41
2024-04-13T22:48:55.564Z,68.92
2024-04-13T22:51:25.337Z,69.27
2024-04-13T22:53:52.386Z,69.60
2024-04-13T22:56:22.059Z,69.57
2024-04-13T22:58:51.692Z,69.21
2024-04-13T23:01:21.620Z,69.48
2024-04-13T23:03:48.751Z,69.89
2024-04-13T23:06:18.414Z,70.11
2024-04-13T23:08:45.442Z,69.69
2024-04-13T23:11:15.109Z,69.92
2024-04-13T23:13:44.176Z,70.20
2024-04-13T23:16:16.564Z,70.29
2024-04-13T23:18:43.748Z,70.37
2024-04-13T23:21:13.365Z,69.97
2024-04-13T23:23:40.338Z,70.58
2024-04-13T23:26:10.031Z,70.13
2024-04-13T23:28:37.000Z,70.15
2024-04-13T23:31:06.930Z,70.89
2024-04-13T23:33:36.657Z,70.89
2024-04-13T23:36:06.623Z,70.97
2024-04-13T23:38:33.740Z,71.09
2024-04-13T23:41:03.517Z,71.12
2024-04-13T23:43:30.623Z,71.23
2024-04-13T23:46:04.576Z,70.91
2024-04-13T23:48:31.740Z,71.29
2024-04-13T23:51:05.216Z,70.90
2024-04-13T23:53:33.373Z,71.03
2024-04-13T23:56:03.058Z,71.46
2024-04-13T23:58:30.999Z,71.43
